sensor_id;sensor_type;location;lat;lon;timestamp;P1;durP1;ratioP1;P2;durP2;ratioP2
76051;SDS011;64751;48.708;9.710;2023-03-01T00:01:11;5.45;;;4.25;;
76051;SDS011;64751;48.708;9.710;2023-03-01T00:03:40;6.40;;;4.57;;
76051;SDS011;64751;48.708;9.710;2023-03-01T00:06:11;5.88;;;4.45;;
76051;SDS011;64751;48.708;9.710;2023-03-01T00:08:39;4.95;;;3.80;;
76051;SDS011;64751;48.708;9.710;2023-03-01T00:11:08;6.03;;;4.43;;
76051;SDS011;64751;48.708;9.710;2023-03-01T00:13:37;4.50;;;4.05;;
76051;SDS011;64751;48.708;9.710;2023-03-01T00:16:07;5.03;;;3.80;;
76051;SDS011;64751;48.708;9.710;2023-03-01T00:18:40;5.60;;;4.13;;
76051;SDS011;64751;48.708;9.710;2023-03-01T00:21:08;4.90;;;4.07;;
76051;SDS011;64751;48.708;9.710;2023-03-01T00:23:36;6.68;;;4.35;;
76051;SDS011;64751;48.708;9.710;2023-03-01T00:26:05;7.07;;;4.22;;
76051;SDS011;64751;48.708;9.710;2023-03-01T00:28:35;4.68;;;4.03;;
76051;SDS011;64751;48.708;9.710;2023-03-01T00:31:03;5.50;;;4.38;;
76051;SDS011;64751;48.708;9.710;2023-03-01T00:33:33;5.18;;;4.00;;
76051;SDS011;64751;48.708;9.710;2023-03-01T00:36:01;6.93;;;4.57;;
76051;SDS011;64751;48.708;9.710;2023-03-01T00:38:29;5.53;;;4.38;;
76051;SDS011;64751;48.708;9.710;2023-03-01T00:41:02;6.72;;;5.13;;
76051;SDS011;64751;48.708;9.710;2023-03-01T00:43:31;5.93;;;4.47;;
76051;SDS011;64751;48.708;9.710;2023-03-01T00:46:02;5.82;;;4.25;;
76051;SDS011;64751;48.708;9.710;2023-03-01T00:48:32;5.97;;;4.28;;
76051;SDS011;64751;48.708;9.710;2023-03-01T00:51:04;4.90;;;4.22;;
76051;SDS011;64751;48.708;9.710;2023-03-01T00:53:33;7.25;;;4.03;;
76051;SDS011;64751;48.708;9.710;2023-03-01T00:56:02;4.65;;;3.97;;
76051;SDS011;64751;48.708;9.710;2023-03-01T00:58:31;5.25;;;3.85;;
76051;SDS011;64751;48.708;9.710;2023-03-01T01:00:59;5.93;;;4.30;;
76051;SDS011;64751;48.708;9.710;2023-03-01T01:03:27;5.38;;;4.25;;
76051;SDS011;64751;48.708;9.710;2023-03-01T01:05:55;6.32;;;4.25;;
76051;SDS011;64751;48.708;9.710;2023-03-01T01:08:23;6.40;;;4.53;;
76051;SDS011;64751;48.708;9.710;2023-03-01T01:10:51;6.10;;;4.53;;
76051;SDS011;64751;48.708;9.710;2023-03-01T01:13:18;6.38;;;4.72;;
76051;SDS011;64751;48.708;9.710;2023-03-01T01:15:46;5.78;;;4.32;;
76051;SDS011;64751;48.708;9.710;2023-03-01T01:18:13;6.63;;;5.05;;
76051;SDS011;64751;48.708;9.710;2023-03-01T01:20:41;6.07;;;4.88;;
76051;SDS011;64751;48.708;9.710;2023-03-01T01:23:10;7.00;;;5.32;;
76051;SDS011;64751;48.708;9.710;2023-03-01T01:25:37;6.00;;;4.47;;
76051;SDS011;64751;48.708;9.710;2023-03-01T01:28:05;5.40;;;4.47;;
76051;SDS011;64751;48.708;9.710;2023-03-01T01:30:35;6.72;;;4.50;;
76051;SDS011;64751;48.708;9.710;2023-03-01T01:33:03;5.97;;;4.50;;
76051;SDS011;64751;48.708;9.710;2023-03-01T01:35:30;6.10;;;5.28;;
76051;SDS011;64751;48.708;9.710;2023-03-01T01:37:58;5.80;;;4.70;;
76051;SDS011;64751;48.708;9.710;2023-03-01T01:40:26;7.03;;;4.82;;
76051;SDS011;64751;48.708;9.710;2023-03-01T01:42:54;7.18;;;5.70;;
76051;SDS011;64751;48.708;9.710;2023-03-01T01:45:26;6.05;;;4.70;;
76051;SDS011;64751;48.708;9.710;2023-03-01T01:48:00;6.78;;;5.20;;
76051;SDS011;64751;48.708;9.710;2023-03-01T01:50:30;7.90;;;5.65;;
76051;SDS011;64751;48.708;9.710;2023-03-01T01:53:09;6.13;;;4.65;;
76051;SDS011;64751;48.708;9.710;2023-03-01T01:55:41;5.80;;;4.70;;
76051;SDS011;64751;48.708;9.710;2023-03-01T01:58:13;6.25;;;5.00;;
76051;SDS011;64751;48.708;9.710;2023-03-01T02:00:45;6.18;;;4.97;;
76051;SDS011;64751;48.708;9.710;2023-03-01T02:03:17;7.95;;;5.03;;
76051;SDS011;64751;48.708;9.710;2023-03-01T02:08:20;6.03;;;4.63;;
76051;SDS011;64751;48.708;9.710;2023-03-01T02:10:54;9.07;;;5.45;;
76051;SDS011;64751;48.708;9.710;2023-03-01T02:13:23;6.13;;;4.82;;
76051;SDS011;64751;48.708;9.710;2023-03-01T02:15:50;6.80;;;5.32;;
76051;SDS011;64751;48.708;9.710;2023-03-01T02:18:20;6.00;;;5.07;;
76051;SDS011;64751;48.708;9.710;2023-03-01T02:21:08;5.78;;;5.00;;
76051;SDS011;64751;48.708;9.710;2023-03-01T02:23:49;5.53;;;4.78;;
76051;SDS011;64751;48.708;9.710;2023-03-01T02:26:20;5.80;;;5.00;;
76051;SDS011;64751;48.708;9.710;2023-03-01T02:28:54;7.18;;;4.93;;
76051;SDS011;64751;48.708;9.710;2023-03-01T02:31:21;7.22;;;5.50;;
76051;SDS011;64751;48.708;9.710;2023-03-01T02:34:06;5.80;;;4.75;;
76051;SDS011;64751;48.708;9.710;2023-03-01T02:36:38;7.30;;;5.72;;
76051;SDS011;64751;48.708;9.710;2023-03-01T02:39:10;6.20;;;5.28;;
76051;SDS011;64751;48.708;9.710;2023-03-01T02:41:44;8.88;;;5.40;;
76051;SDS011;64751;48.708;9.710;2023-03-01T02:44:15;7.35;;;5.65;;
76051;SDS011;64751;48.708;9.710;2023-03-01T02:46:43;6.28;;;5.13;;
76051;SDS011;64751;48.708;9.710;2023-03-01T02:49:17;6.97;;;5.55;;
76051;SDS011;64751;48.708;9.710;2023-03-01T02:52:06;5.90;;;4.85;;
76051;SDS011;64751;48.708;9.710;2023-03-01T02:54:46;5.63;;;4.97;;
76051;SDS011;64751;48.708;9.710;2023-03-01T02:57:18;8.68;;;5.50;;
76051;SDS011;64751;48.708;9.710;2023-03-01T02:59:49;6.05;;;4.95;;
76051;SDS011;64751;48.708;9.710;2023-03-01T03:02:19;7.25;;;6.15;;
76051;SDS011;64751;48.708;9.710;2023-03-01T03:05:04;5.95;;;4.82;;
76051;SDS011;64751;48.708;9.710;2023-03-01T03:07:35;5.63;;;4.55;;
76051;SDS011;64751;48.708;9.710;2023-03-01T03:10:05;6.35;;;5.57;;
76051;SDS011;64751;48.708;9.710;2023-03-01T03:12:37;7.22;;;5.45;;
76051;SDS011;64751;48.708;9.710;2023-03-01T03:15:08;6.93;;;5.50;;
76051;SDS011;64751;48.708;9.710;2023-03-01T03:17:39;6.50;;;5.00;;
76051;SDS011;64751;48.708;9.710;2023-03-01T03:20:09;6.35;;;5.00;;
76051;SDS011;64751;48.708;9.710;2023-03-01T03:22:38;6.85;;;5.18;;
76051;SDS011;64751;48.708;9.710;2023-03-01T03:25:09;7.18;;;5.55;;
76051;SDS011;64751;48.708;9.710;2023-03-01T03:27:37;6.07;;;4.88;;
76051;SDS011;64751;48.708;9.710;2023-03-01T03:30:08;6.53;;;4.88;;
76051;SDS011;64751;48.708;9.710;2023-03-01T03:32:38;8.45;;;6.07;;
76051;SDS011;64751;48.708;9.710;2023-03-01T03:35:06;7.13;;;5.45;;
76051;SDS011;64751;48.708;9.710;2023-03-01T03:37:36;6.97;;;5.57;;
76051;SDS011;64751;48.708;9.710;2023-03-01T03:40:37;8.82;;;5.93;;
76051;SDS011;64751;48.708;9.710;2023-03-01T03:43:06;6.75;;;5.65;;
76051;SDS011;64751;48.708;9.710;2023-03-01T03:45:36;6.47;;;5.05;;
76051;SDS011;64751;48.708;9.710;2023-03-01T03:48:05;7.82;;;5.40;;
76051;SDS011;64751;48.708;9.710;2023-03-01T03:50:36;7.43;;;6.18;;
76051;SDS011;64751;48.708;9.710;2023-03-01T03:53:06;6.93;;;5.50;;
76051;SDS011;64751;48.708;9.710;2023-03-01T03:55:35;8.15;;;5.63;;
76051;SDS011;64751;48.708;9.710;2023-03-01T03:58:05;7.07;;;5.60;;
76051;SDS011;64751;48.708;9.710;2023-03-01T04:00:39;6.47;;;5.15;;
76051;SDS011;64751;48.708;9.710;2023-03-01T04:03:08;7.07;;;5.65;;
76051;SDS011;64751;48.708;9.710;2023-03-01T04:05:36;7.03;;;5.38;;
76051;SDS011;64751;48.708;9.710;2023-03-01T04:08:04;6.53;;;4.95;;
76051;SDS011;64751;48.708;9.710;2023-03-01T04:10:33;9.00;;;5.95;;
76051;SDS011;64751;48.708;9.710;2023-03-01T04:13:02;7.60;;;5.55;;
76051;SDS011;64751;48.708;9.710;2023-03-01T04:15:30;6.38;;;5.10;;
76051;SDS011;64751;48.708;9.710;2023-03-01T04:18:00;7.72;;;5.85;;
76051;SDS011;64751;48.708;9.710;2023-03-01T04:20:28;7.15;;;6.05;;
76051;SDS011;64751;48.708;9.710;2023-03-01T04:22:59;6.82;;;5.18;;
76051;SDS011;64751;48.708;9.710;2023-03-01T04:25:37;7.82;;;5.07;;
76051;SDS011;64751;48.708;9.710;2023-03-01T04:28:06;6.55;;;5.47;;
76051;SDS011;64751;48.708;9.710;2023-03-01T04:30:34;7.25;;;5.72;;
76051;SDS011;64751;48.708;9.710;2023-03-01T04:33:04;7.22;;;6.07;;
76051;SDS011;64751;48.708;9.710;2023-03-01T04:35:34;6.38;;;5.72;;
76051;SDS011;64751;48.708;9.710;2023-03-01T04:38:02;6.38;;;5.55;;
76051;SDS011;64751;48.708;9.710;2023-03-01T04:40:30;6.80;;;4.85;;
76051;SDS011;64751;48.708;9.710;2023-03-01T04:42:58;7.47;;;5.80;;
76051;SDS011;64751;48.708;9.710;2023-03-01T04:45:25;6.70;;;5.55;;
76051;SDS011;64751;48.708;9.710;2023-03-01T04:47:53;6.78;;;4.75;;
76051;SDS011;64751;48.708;9.710;2023-03-01T04:50:25;6.82;;;5.43;;
76051;SDS011;64751;48.708;9.710;2023-03-01T04:52:53;7.05;;;5.60;;
76051;SDS011;64751;48.708;9.710;2023-03-01T04:55:20;7.30;;;5.60;;
76051;SDS011;64751;48.708;9.710;2023-03-01T04:57:48;7.40;;;6.03;;
76051;SDS011;64751;48.708;9.710;2023-03-01T05:00:18;7.43;;;5.88;;
76051;SDS011;64751;48.708;9.710;2023-03-01T05:02:49;7.00;;;5.47;;
76051;SDS011;64751;48.708;9.710;2023-03-01T05:05:20;6.30;;;5.43;;
76051;SDS011;64751;48.708;9.710;2023-03-01T05:07:53;8.82;;;6.00;;
76051;SDS011;64751;48.708;9.710;2023-03-01T05:10:22;5.97;;;4.93;;
76051;SDS011;64751;48.708;9.710;2023-03-01T05:12:50;6.60;;;5.07;;
76051;SDS011;64751;48.708;9.710;2023-03-01T05:15:19;6.85;;;5.63;;
76051;SDS011;64751;48.708;9.710;2023-03-01T05:17:48;6.93;;;5.57;;
76051;SDS011;64751;48.708;9.710;2023-03-01T05:20:15;6.57;;;5.35;;
76051;SDS011;64751;48.708;9.710;2023-03-01T05:22:43;6.05;;;5.35;;
76051;SDS011;64751;48.708;9.710;2023-03-01T05:25:14;7.10;;;5.88;;
76051;SDS011;64751;48.708;9.710;2023-03-01T05:27:42;6.10;;;5.32;;
76051;SDS011;64751;48.708;9.710;2023-03-01T05:30:10;7.20;;;5.60;;
76051;SDS011;64751;48.708;9.710;2023-03-01T05:32:41;6.65;;;5.25;;
76051;SDS011;64751;48.708;9.710;2023-03-01T05:35:11;7.15;;;6.03;;
76051;SDS011;64751;48.708;9.710;2023-03-01T05:37:40;7.20;;;5.47;;
76051;SDS011;64751;48.708;9.710;2023-03-01T05:40:09;7.70;;;5.72;;
76051;SDS011;64751;48.708;9.710;2023-03-01T05:42:43;7.15;;;5.38;;
76051;SDS011;64751;48.708;9.710;2023-03-01T05:45:12;7.20;;;5.38;;
76051;SDS011;64751;48.708;9.710;2023-03-01T05:47:44;7.03;;;5.15;;
76051;SDS011;64751;48.708;9.710;2023-03-01T05:50:14;5.68;;;4.55;;
76051;SDS011;64751;48.708;9.710;2023-03-01T05:52:45;6.47;;;5.10;;
76051;SDS011;64751;48.708;9.710;2023-03-01T05:55:14;6.85;;;5.57;;
76051;SDS011;64751;48.708;9.710;2023-03-01T05:57:44;7.72;;;6.28;;
76051;SDS011;64751;48.708;9.710;2023-03-01T06:00:13;8.40;;;6.10;;
76051;SDS011;64751;48.708;9.710;2023-03-01T06:02:42;7.82;;;5.60;;
76051;SDS011;64751;48.708;9.710;2023-03-01T06:05:11;6.47;;;5.70;;
76051;SDS011;64751;48.708;9.710;2023-03-01T06:07:39;7.35;;;5.63;;
76051;SDS011;64751;48.708;9.710;2023-03-01T06:10:08;7.22;;;5.53;;
76051;SDS011;64751;48.708;9.710;2023-03-01T06:12:37;7.35;;;5.90;;
76051;SDS011;64751;48.708;9.710;2023-03-01T06:15:07;6.97;;;5.57;;
76051;SDS011;64751;48.708;9.710;2023-03-01T06:17:37;7.25;;;5.70;;
76051;SDS011;64751;48.708;9.710;2023-03-01T06:20:07;7.13;;;5.85;;
76051;SDS011;64751;48.708;9.710;2023-03-01T06:22:36;8.13;;;5.68;;
76051;SDS011;64751;48.708;9.710;2023-03-01T06:25:04;6.93;;;5.15;;
76051;SDS011;64751;48.708;9.710;2023-03-01T06:27:33;6.50;;;5.85;;
76051;SDS011;64751;48.708;9.710;2023-03-01T06:30:00;7.13;;;5.82;;
76051;SDS011;64751;48.708;9.710;2023-03-01T06:32:30;7.97;;;6.32;;
76051;SDS011;64751;48.708;9.710;2023-03-01T06:34:58;7.53;;;5.75;;
76051;SDS011;64751;48.708;9.710;2023-03-01T06:37:26;8.95;;;5.25;;
76051;SDS011;64751;48.708;9.710;2023-03-01T06:39:53;7.80;;;6.28;;
76051;SDS011;64751;48.708;9.710;2023-03-01T06:42:21;7.15;;;5.40;;
76051;SDS011;64751;48.708;9.710;2023-03-01T06:44:49;7.50;;;5.85;;
76051;SDS011;64751;48.708;9.710;2023-03-01T06:47:17;7.20;;;5.78;;
76051;SDS011;64751;48.708;9.710;2023-03-01T06:49:46;7.93;;;6.60;;
76051;SDS011;64751;48.708;9.710;2023-03-01T06:52:13;6.80;;;5.43;;
76051;SDS011;64751;48.708;9.710;2023-03-01T06:54:41;8.18;;;6.72;;
76051;SDS011;64751;48.708;9.710;2023-03-01T06:57:08;7.78;;;5.78;;
76051;SDS011;64751;48.708;9.710;2023-03-01T06:59:39;6.40;;;5.13;;
76051;SDS011;64751;48.708;9.710;2023-03-01T07:02:08;8.57;;;6.50;;
76051;SDS011;64751;48.708;9.710;2023-03-01T07:04:37;6.55;;;5.82;;
76051;SDS011;64751;48.708;9.710;2023-03-01T07:07:06;6.72;;;5.15;;
76051;SDS011;64751;48.708;9.710;2023-03-01T07:09:33;8.68;;;6.25;;
76051;SDS011;64751;48.708;9.710;2023-03-01T07:12:01;5.97;;;5.20;;
76051;SDS011;64751;48.708;9.710;2023-03-01T07:14:29;6.38;;;5.22;;
76051;SDS011;64751;48.708;9.710;2023-03-01T07:16:56;6.97;;;5.60;;
76051;SDS011;64751;48.708;9.710;2023-03-01T07:19:24;7.45;;;5.63;;
76051;SDS011;64751;48.708;9.710;2023-03-01T07:21:51;8.25;;;6.47;;
76051;SDS011;64751;48.708;9.710;2023-03-01T07:24:20;7.68;;;6.13;;
76051;SDS011;64751;48.708;9.710;2023-03-01T07:26:48;6.63;;;5.25;;
76051;SDS011;64751;48.708;9.710;2023-03-01T07:29:16;7.53;;;5.68;;
76051;SDS011;64751;48.708;9.710;2023-03-01T07:31:45;6.95;;;5.50;;
76051;SDS011;64751;48.708;9.710;2023-03-01T07:34:12;7.25;;;6.03;;
76051;SDS011;64751;48.708;9.710;2023-03-01T07:36:40;7.72;;;6.00;;
76051;SDS011;64751;48.708;9.710;2023-03-01T07:39:09;6.63;;;5.57;;
76051;SDS011;64751;48.708;9.710;2023-03-01T07:41:38;7.13;;;5.85;;
76051;SDS011;64751;48.708;9.710;2023-03-01T07:44:06;7.60;;;5.82;;
76051;SDS011;64751;48.708;9.710;2023-03-01T07:46:33;7.55;;;5.85;;
76051;SDS011;64751;48.708;9.710;2023-03-01T07:49:01;6.68;;;5.57;;
76051;SDS011;64751;48.708;9.710;2023-03-01T07:51:28;6.47;;;5.78;;
76051;SDS011;64751;48.708;9.710;2023-03-01T07:53:56;7.10;;;5.70;;
76051;SDS011;64751;48.708;9.710;2023-03-01T07:56:23;7.68;;;5.80;;
76051;SDS011;64751;48.708;9.710;2023-03-01T07:58:52;6.22;;;5.60;;
76051;SDS011;64751;48.708;9.710;2023-03-01T08:01:20;7.47;;;6.30;;
76051;SDS011;64751;48.708;9.710;2023-03-01T08:03:48;7.95;;;5.72;;
76051;SDS011;64751;48.708;9.710;2023-03-01T08:06:16;6.20;;;5.38;;
76051;SDS011;64751;48.708;9.710;2023-03-01T08:08:45;6.60;;;5.80;;
76051;SDS011;64751;48.708;9.710;2023-03-01T08:11:13;6.47;;;5.60;;
76051;SDS011;64751;48.708;9.710;2023-03-01T08:13:42;7.03;;;6.18;;
76051;SDS011;64751;48.708;9.710;2023-03-01T08:16:12;8.10;;;6.10;;
76051;SDS011;64751;48.708;9.710;2023-03-01T08:18:40;7.35;;;5.72;;
76051;SDS011;64751;48.708;9.710;2023-03-01T08:21:09;7.78;;;6.03;;
76051;SDS011;64751;48.708;9.710;2023-03-01T08:23:38;7.38;;;5.68;;
76051;SDS011;64751;48.708;9.710;2023-03-01T08:26:06;7.22;;;5.45;;
76051;SDS011;64751;48.708;9.710;2023-03-01T08:28:35;8.05;;;5.55;;
76051;SDS011;64751;48.708;9.710;2023-03-01T08:31:04;7.55;;;5.95;;
76051;SDS011;64751;48.708;9.710;2023-03-01T08:33:42;8.23;;;6.32;;
76051;SDS011;64751;48.708;9.710;2023-03-01T08:36:10;6.78;;;5.78;;
76051;SDS011;64751;48.708;9.710;2023-03-01T08:38:37;6.70;;;5.90;;
76051;SDS011;64751;48.708;9.710;2023-03-01T08:41:05;7.53;;;5.90;;
76051;SDS011;64751;48.708;9.710;2023-03-01T08:43:32;8.07;;;6.28;;
76051;SDS011;64751;48.708;9.710;2023-03-01T08:46:00;7.28;;;6.45;;
76051;SDS011;64751;48.708;9.710;2023-03-01T08:48:29;7.97;;;5.72;;
76051;SDS011;64751;48.708;9.710;2023-03-01T08:50:56;6.53;;;5.43;;
76051;SDS011;64751;48.708;9.710;2023-03-01T08:53:24;5.88;;;5.10;;
76051;SDS011;64751;48.708;9.710;2023-03-01T08:55:51;7.13;;;5.88;;
76051;SDS011;64751;48.708;9.710;2023-03-01T08:58:19;8.73;;;5.88;;
76051;SDS011;64751;48.708;9.710;2023-03-01T09:00:46;7.60;;;5.57;;
76051;SDS011;64751;48.708;9.710;2023-03-01T09:03:14;6.63;;;5.32;;
76051;SDS011;64751;48.708;9.710;2023-03-01T09:05:43;5.90;;;5.10;;
76051;SDS011;64751;48.708;9.710;2023-03-01T09:08:11;5.90;;;5.07;;
76051;SDS011;64751;48.708;9.710;2023-03-01T09:10:39;6.20;;;5.30;;
76051;SDS011;64751;48.708;9.710;2023-03-01T09:13:06;6.30;;;5.63;;
76051;SDS011;64751;48.708;9.710;2023-03-01T09:15:36;7.82;;;5.60;;
76051;SDS011;64751;48.708;9.710;2023-03-01T09:18:03;6.88;;;5.50;;
76051;SDS011;64751;48.708;9.710;2023-03-01T09:20:31;8.70;;;5.80;;
76051;SDS011;64751;48.708;9.710;2023-03-01T09:23:01;7.35;;;5.75;;
76051;SDS011;64751;48.708;9.710;2023-03-01T09:25:28;6.60;;;5.50;;
76051;SDS011;64751;48.708;9.710;2023-03-01T09:27:56;8.38;;;6.40;;
76051;SDS011;64751;48.708;9.710;2023-03-01T09:30:24;7.32;;;6.10;;
76051;SDS011;64751;48.708;9.710;2023-03-01T09:32:53;7.55;;;5.78;;
76051;SDS011;64751;48.708;9.710;2023-03-01T09:35:21;6.13;;;5.15;;
76051;SDS011;64751;48.708;9.710;2023-03-01T09:37:49;6.05;;;5.15;;
76051;SDS011;64751;48.708;9.710;2023-03-01T09:40:20;5.90;;;5.30;;
76051;SDS011;64751;48.708;9.710;2023-03-01T09:42:52;6.57;;;5.40;;
76051;SDS011;64751;48.708;9.710;2023-03-01T09:45:25;5.95;;;5.22;;
76051;SDS011;64751;48.708;9.710;2023-03-01T09:47:56;5.53;;;4.82;;
76051;SDS011;64751;48.708;9.710;2023-03-01T09:50:25;5.40;;;4.63;;
76051;SDS011;64751;48.708;9.710;2023-03-01T09:53:00;6.30;;;5.70;;
76051;SDS011;64751;48.708;9.710;2023-03-01T09:55:33;5.55;;;4.38;;
76051;SDS011;64751;48.708;9.710;2023-03-01T09:58:10;5.32;;;4.78;;
76051;SDS011;64751;48.708;9.710;2023-03-01T10:00:54;6.90;;;4.88;;
76051;SDS011;64751;48.708;9.710;2023-03-01T10:03:27;5.90;;;4.97;;
76051;SDS011;64751;48.708;9.710;2023-03-01T10:06:02;5.35;;;4.82;;
76051;SDS011;64751;48.708;9.710;2023-03-01T10:08:38;6.15;;;4.78;;
76051;SDS011;64751;48.708;9.710;2023-03-01T10:11:20;5.65;;;4.75;;
76051;SDS011;64751;48.708;9.710;2023-03-01T10:13:50;5.75;;;4.80;;
76051;SDS011;64751;48.708;9.710;2023-03-01T10:16:26;5.70;;;4.85;;
76051;SDS011;64751;48.708;9.710;2023-03-01T10:19:00;5.45;;;4.72;;
76051;SDS011;64751;48.708;9.710;2023-03-01T10:21:30;6.00;;;5.03;;
76051;SDS011;64751;48.708;9.710;2023-03-01T10:24:08;5.05;;;4.30;;
76051;SDS011;64751;48.708;9.710;2023-03-01T10:26:42;7.95;;;5.07;;
76051;SDS011;64751;48.708;9.710;2023-03-01T10:29:15;5.70;;;5.13;;
76051;SDS011;64751;48.708;9.710;2023-03-01T10:31:43;5.43;;;4.50;;
76051;SDS011;64751;48.708;9.710;2023-03-01T10:34:14;5.50;;;4.82;;
76051;SDS011;64751;48.708;9.710;2023-03-01T10:36:44;6.72;;;5.03;;
76051;SDS011;64751;48.708;9.710;2023-03-01T10:39:17;4.97;;;4.47;;
76051;SDS011;64751;48.708;9.710;2023-03-01T10:41:56;6.15;;;5.13;;
76051;SDS011;64751;48.708;9.710;2023-03-01T10:44:36;5.68;;;4.25;;
76051;SDS011;64751;48.708;9.710;2023-03-01T10:47:13;5.43;;;4.63;;
76051;SDS011;64751;48.708;9.710;2023-03-01T10:49:55;5.72;;;5.05;;
76051;SDS011;64751;48.708;9.710;2023-03-01T10:52:26;5.60;;;4.55;;
76051;SDS011;64751;48.708;9.710;2023-03-01T10:54:57;6.43;;;4.93;;
76051;SDS011;64751;48.708;9.710;2023-03-01T10:57:29;5.10;;;4.32;;
76051;SDS011;64751;48.708;9.710;2023-03-01T11:00:14;5.30;;;4.80;;
76051;SDS011;64751;48.708;9.710;2023-03-01T11:02:47;6.78;;;5.80;;
76051;SDS011;64751;48.708;9.710;2023-03-01T11:05:19;6.28;;;4.80;;
76051;SDS011;64751;48.708;9.710;2023-03-01T11:07:50;5.47;;;4.43;;
76051;SDS011;64751;48.708;9.710;2023-03-01T11:10:22;5.93;;;4.90;;
76051;SDS011;64751;48.708;9.710;2023-03-01T11:12:53;5.55;;;4.63;;
76051;SDS011;64751;48.708;9.710;2023-03-01T11:15:23;5.95;;;5.30;;
76051;SDS011;64751;48.708;9.710;2023-03-01T11:17:54;6.95;;;4.90;;
76051;SDS011;64751;48.708;9.710;2023-03-01T11:20:26;5.78;;;5.13;;
76051;SDS011;64751;48.708;9.710;2023-03-01T11:22:58;5.63;;;4.88;;
76051;SDS011;64751;48.708;9.710;2023-03-01T11:25:29;5.80;;;4.70;;
76051;SDS011;64751;48.708;9.710;2023-03-01T11:28:01;5.70;;;4.75;;
76051;SDS011;64751;48.708;9.710;2023-03-01T11:30:32;6.68;;;4.70;;
76051;SDS011;64751;48.708;9.710;2023-03-01T11:33:10;6.75;;;4.63;;
76051;SDS011;64751;48.708;9.710;2023-03-01T11:38:20;5.72;;;4.57;;
76051;SDS011;64751;48.708;9.710;2023-03-01T11:40:50;6.10;;;4.75;;
76051;SDS011;64751;48.708;9.710;2023-03-01T11:43:28;6.10;;;4.80;;
76051;SDS011;64751;48.708;9.710;2023-03-01T11:49:10;5.53;;;4.95;;
76051;SDS011;64751;48.708;9.710;2023-03-01T11:51:47;5.38;;;4.63;;
76051;SDS011;64751;48.708;9.710;2023-03-01T11:54:28;5.35;;;4.80;;
76051;SDS011;64751;48.708;9.710;2023-03-01T11:57:09;5.85;;;5.00;;
76051;SDS011;64751;48.708;9.710;2023-03-01T11:59:48;6.18;;;5.13;;
76051;SDS011;64751;48.708;9.710;2023-03-01T12:02:36;5.53;;;4.85;;
76051;SDS011;64751;48.708;9.710;2023-03-01T12:05:20;8.18;;;5.30;;
76051;SDS011;64751;48.708;9.710;2023-03-01T12:08:04;5.85;;;5.03;;
76051;SDS011;64751;48.708;9.710;2023-03-01T12:10:41;4.90;;;4.38;;
76051;SDS011;64751;48.708;9.710;2023-03-01T12:13:34;5.60;;;4.68;;
76051;SDS011;64751;48.708;9.710;2023-03-01T12:16:24;6.43;;;5.15;;
76051;SDS011;64751;48.708;9.710;2023-03-01T12:25:04;5.15;;;4.65;;
76051;SDS011;64751;48.708;9.710;2023-03-01T12:27:51;6.35;;;5.20;;
76051;SDS011;64751;48.708;9.710;2023-03-01T12:30:32;5.40;;;4.60;;
76051;SDS011;64751;48.708;9.710;2023-03-01T12:33:17;5.68;;;4.68;;
76051;SDS011;64751;48.708;9.710;2023-03-01T12:38:59;4.45;;;3.88;;
76051;SDS011;64751;48.708;9.710;2023-03-01T12:41:43;5.28;;;4.50;;
76051;SDS011;64751;48.708;9.710;2023-03-01T12:44:24;4.78;;;4.03;;
76051;SDS011;64751;48.708;9.710;2023-03-01T12:47:04;6.95;;;4.78;;
76051;SDS011;64751;48.708;9.710;2023-03-01T12:49:44;5.30;;;4.50;;
76051;SDS011;64751;48.708;9.710;2023-03-01T12:52:16;5.97;;;4.32;;
76051;SDS011;64751;48.708;9.710;2023-03-01T12:54:50;5.00;;;4.32;;
76051;SDS011;64751;48.708;9.710;2023-03-01T12:57:26;4.95;;;4.35;;
76051;SDS011;64751;48.708;9.710;2023-03-01T13:00:06;4.35;;;3.72;;
76051;SDS011;64751;48.708;9.710;2023-03-01T13:02:45;5.35;;;4.53;;
76051;SDS011;64751;48.708;9.710;2023-03-01T13:05:29;5.72;;;4.40;;
76051;SDS011;64751;48.708;9.710;2023-03-01T13:08:07;6.07;;;4.13;;
76051;SDS011;64751;48.708;9.710;2023-03-01T13:10:43;4.35;;;3.95;;
76051;SDS011;64751;48.708;9.710;2023-03-01T13:13:19;4.90;;;4.25;;
76051;SDS011;64751;48.708;9.710;2023-03-01T13:15:47;5.45;;;4.45;;
76051;SDS011;64751;48.708;9.710;2023-03-01T13:18:30;7.07;;;4.88;;
76051;SDS011;64751;48.708;9.710;2023-03-01T13:21:04;6.60;;;4.93;;
76051;SDS011;64751;48.708;9.710;2023-03-01T13:23:33;5.72;;;4.68;;
76051;SDS011;64751;48.708;9.710;2023-03-01T13:26:10;5.20;;;4.65;;
76051;SDS011;64751;48.708;9.710;2023-03-01T13:28:47;5.65;;;5.10;;
76051;SDS011;64751;48.708;9.710;2023-03-01T13:34:40;5.10;;;4.60;;
76051;SDS011;64751;48.708;9.710;2023-03-01T13:37:32;5.25;;;4.20;;
76051;SDS011;64751;48.708;9.710;2023-03-01T13:40:07;6.22;;;4.80;;
76051;SDS011;64751;48.708;9.710;2023-03-01T13:43:27;6.18;;;5.40;;
76051;SDS011;64751;48.708;9.710;2023-03-01T13:45:57;5.93;;;5.22;;
76051;SDS011;64751;48.708;9.710;2023-03-01T13:48:27;6.00;;;4.97;;
76051;SDS011;64751;48.708;9.710;2023-03-01T13:50:58;6.82;;;5.47;;
76051;SDS011;64751;48.708;9.710;2023-03-01T13:53:30;5.18;;;4.68;;
76051;SDS011;64751;48.708;9.710;2023-03-01T13:56:01;6.03;;;4.80;;
76051;SDS011;64751;48.708;9.710;2023-03-01T13:58:43;7.88;;;5.25;;
76051;SDS011;64751;48.708;9.710;2023-03-01T14:01:21;5.18;;;4.68;;
76051;SDS011;64751;48.708;9.710;2023-03-01T14:03:54;5.80;;;5.13;;
76051;SDS011;64751;48.708;9.710;2023-03-01T14:06:22;6.15;;;4.78;;
76051;SDS011;64751;48.708;9.710;2023-03-01T14:08:59;6.50;;;4.88;;
76051;SDS011;64751;48.708;9.710;2023-03-01T14:14:08;6.82;;;5.32;;
76051;SDS011;64751;48.708;9.710;2023-03-01T14:16:55;5.35;;;4.78;;
76051;SDS011;64751;48.708;9.710;2023-03-01T14:19:30;5.97;;;5.13;;
76051;SDS011;64751;48.708;9.710;2023-03-01T14:22:02;5.65;;;5.03;;
76051;SDS011;64751;48.708;9.710;2023-03-01T14:24:39;4.97;;;4.35;;
76051;SDS011;64751;48.708;9.710;2023-03-01T14:27:13;6.30;;;5.05;;
76051;SDS011;64751;48.708;9.710;2023-03-01T14:29:41;6.43;;;5.18;;
76051;SDS011;64751;48.708;9.710;2023-03-01T14:32:10;6.18;;;4.97;;
76051;SDS011;64751;48.708;9.710;2023-03-01T14:34:43;6.95;;;4.80;;
76051;SDS011;64751;48.708;9.710;2023-03-01T14:37:17;5.97;;;5.20;;
76051;SDS011;64751;48.708;9.710;2023-03-01T14:39:49;5.47;;;4.90;;
76051;SDS011;64751;48.708;9.710;2023-03-01T14:42:18;5.88;;;4.63;;
76051;SDS011;64751;48.708;9.710;2023-03-01T14:44:48;5.28;;;4.40;;
76051;SDS011;64751;48.708;9.710;2023-03-01T14:47:21;5.47;;;4.50;;
76051;SDS011;64751;48.708;9.710;2023-03-01T14:49:55;5.15;;;4.63;;
76051;SDS011;64751;48.708;9.710;2023-03-01T14:52:31;6.22;;;4.82;;
76051;SDS011;64751;48.708;9.710;2023-03-01T14:55:06;5.45;;;4.65;;
76051;SDS011;64751;48.708;9.710;2023-03-01T14:57:42;7.20;;;5.00;;
76051;SDS011;64751;48.708;9.710;2023-03-01T15:00:13;5.70;;;5.10;;
76051;SDS011;64751;48.708;9.710;2023-03-01T15:02:46;4.72;;;4.05;;
76051;SDS011;64751;48.708;9.710;2023-03-01T15:05:15;5.50;;;4.90;;
76051;SDS011;64751;48.708;9.710;2023-03-01T15:07:46;5.57;;;4.75;;
76051;SDS011;64751;48.708;9.710;2023-03-01T15:10:19;5.85;;;5.20;;
76051;SDS011;64751;48.708;9.710;2023-03-01T15:12:48;5.10;;;4.53;;
76051;SDS011;64751;48.708;9.710;2023-03-01T15:15:20;5.47;;;4.55;;
76051;SDS011;64751;48.708;9.710;2023-03-01T15:18:03;6.05;;;4.53;;
76051;SDS011;64751;48.708;9.710;2023-03-01T15:20:39;5.78;;;4.45;;
76051;SDS011;64751;48.708;9.710;2023-03-01T15:23:12;6.03;;;4.50;;
76051;SDS011;64751;48.708;9.710;2023-03-01T15:25:48;5.20;;;4.28;;
76051;SDS011;64751;48.708;9.710;2023-03-01T15:28:23;4.78;;;4.28;;
76051;SDS011;64751;48.708;9.710;2023-03-01T15:30:53;4.75;;;4.05;;
76051;SDS011;64751;48.708;9.710;2023-03-01T15:33:29;5.75;;;4.68;;
76051;SDS011;64751;48.708;9.710;2023-03-01T15:35:59;6.25;;;4.80;;
76051;SDS011;64751;48.708;9.710;2023-03-01T15:38:32;5.63;;;4.65;;